Nieuw Amsterdam — PBWQ — position and weather

sailwx.info

Track history (hours):
 
Tides and Currents Weather Stations Pressure Air Temp Water Temp Dewpoint Dewpoint Depression Visibility Wind Speed Wind Dir Waves Ship Positions

Nieuw Amsterdam

Last reported at 2017-Dec-06 22:24 UTC. Time now 2017-Dec-13 03:37 UTC.
Position N 26°18' W 079°21'.

Length 285 m; draft 8 m.

Type: Passenger vessel. MMSI: 246648000.

Date/timePositionNaut miles runAvg speedWind from/ knotsBaromVisibWave heightAir tempDewpointWater temp
2017-Dec-06 22:24N 26°18' W 079°21'819.7
2017-Dec-06 22:01N 26°16' W 079°29'917.1
2017-Dec-06 21:31N 26°13' W 079°38'917.9
2017-Dec-06 21:01N 26°10' W 079°47'182 5.4
2017-Dec-05 11:00N 26°12' W 076°24'58 2.2 100 / 211021.0 5.4 24.818.026.5
2017-Dec-04 09:00N 25°24' W 077°00'1313.2 060 / 161018.1 5.4 25.318.227.1
2017-Dec-04 08:00N 25°36' W 076°54'35 1.5 060 / 161018.1 5.4 25.318.227.1
2017-Dec-03 09:00N 25°24' W 076°18'2020.2 050 / 231017.1 24.620.527.6
2017-Dec-03 08:00N 25°36' W 076°36'15619.4 050 / 231017.1 24.620.527.6
2017-Dec-02 23:57N 26°12' W 079°25'818.3
2017-Dec-02 23:30N 26°11' W 079°33'917.4
2017-Dec-02 23:01N 26°09' W 079°43'917.2
2017-Dec-02 22:31N 26°07' W 079°52'816.9
2017-Dec-02 22:01N 26°04' W 080°01'510.0
2017-Dec-02 21:31N 26°06' W 080°07'1 0.9
2017-Dec-02 20:55N 26°05' W 080°07'0 0.0
2017-Dec-02 20:25N 26°05' W 080°07'0 0.0
2017-Dec-02 19:55N 26°05' W 080°07'0 0.0
2017-Dec-02 19:25N 26°05' W 080°07'0 0.0
2017-Dec-02 18:55N 26°05' W 080°07'0 0.0
2017-Dec-02 18:28N 26°05' W 080°07'0 0.0
2017-Dec-02 17:58N 26°05' W 080°07'0 0.0
2017-Dec-02 17:28N 26°05' W 080°07'0 0.0
2017-Dec-02 16:58N 26°05' W 080°07'0 0.0
2017-Dec-02 16:28N 26°05' W 080°07'0 0.0
2017-Dec-02 15:58N 26°05' W 080°07'0 0.0
2017-Dec-02 15:28N 26°05' W 080°07'0 0.0
2017-Dec-02 14:58N 26°05' W 080°07'0 0.0
2017-Dec-02 14:16N 26°05' W 080°07'0 0.0
2017-Dec-02 13:53N 26°05' W 080°07'0 0.0
2017-Dec-02 13:26N 26°05' W 080°07'0 0.0
2017-Dec-02 12:56N 26°05' W 080°07'0 0.0
2017-Dec-02 12:26N 26°05' W 080°07'0 0.0
2017-Dec-02 12:00N 26°05' W 080°07'0 1.0
2017-Dec-02 11:30N 26°06' W 080°07'5 9.7
2017-Dec-02 11:00N 26°06' W 080°01'612.5
2017-Dec-02 10:30N 26°07' W 079°55'714.4
2017-Dec-02 10:00N 26°09' W 079°47'714.6
2017-Dec-02 09:30N 26°11' W 079°39'714.6
2017-Dec-02 09:00N 26°13' W 079°31'38012.6
2017-Dec-01 03:00N 23°12' W 073°24'3517.6 040 / 181012.5 5.4 27.022.432.1
2017-Dec-01 01:00N 23°00' W 072°48'2020.5 040 / 181012.5 5.4 27.022.432.1
2017-Dec-01 00:00N 22°48' W 072°30'26919.2 030 / 121012.1 5.4 26.822.032.0
2017-Nov-30 10:00N 20°18' W 068°30'22818.4 130 / 131012.5 5.4 26.822.227.9
2017-Nov-29 21:36N 18°18' W 065°04'216.8
2017-Nov-29 21:29N 18°17' W 065°03'6 0.6
2017-Nov-29 11:07N 18°18' W 064°57'1 8.2
2017-Nov-29 11:00N 18°18' W 064°57'  
Track history (hours):
 
Tides and Currents Weather Stations Pressure Air Temp Water Temp Dewpoint Dewpoint Depression Visibility Wind Speed Wind Dir Waves Ship Positions

Nieuw Amsterdam

Last reported at 2017-Dec-06 22:24 UTC. Time now 2017-Dec-13 03:37 UTC.
Position N 26°18' W 079°21'.

Length 285 m; draft 8 m.

Type: Passenger vessel. MMSI: 246648000.

Date/timePositionNaut miles runAvg speedWind from/ knotsBaromVisibWave heightAir tempDewpointWater temp
2017-Dec-06 22:24N 26°18' W 079°21'819.7
2017-Dec-06 22:01N 26°16' W 079°29'917.1
2017-Dec-06 21:31N 26°13' W 079°38'917.9
2017-Dec-06 21:01N 26°10' W 079°47'182 5.4
2017-Dec-05 11:00N 26°12' W 076°24'58 2.2 100 / 211021.0 5.4 24.818.026.5
2017-Dec-04 09:00N 25°24' W 077°00'1313.2 060 / 161018.1 5.4 25.318.227.1
2017-Dec-04 08:00N 25°36' W 076°54'35 1.5 060 / 161018.1 5.4 25.318.227.1
2017-Dec-03 09:00N 25°24' W 076°18'2020.2 050 / 231017.1 24.620.527.6
2017-Dec-03 08:00N 25°36' W 076°36'15619.4 050 / 231017.1 24.620.527.6
2017-Dec-02 23:57N 26°12' W 079°25'818.3
2017-Dec-02 23:30N 26°11' W 079°33'917.4
2017-Dec-02 23:01N 26°09' W 079°43'917.2
2017-Dec-02 22:31N 26°07' W 079°52'816.9
2017-Dec-02 22:01N 26°04' W 080°01'510.0
2017-Dec-02 21:31N 26°06' W 080°07'1 0.9
2017-Dec-02 20:55N 26°05' W 080°07'0 0.0
2017-Dec-02 20:25N 26°05' W 080°07'0 0.0
2017-Dec-02 19:55N 26°05' W 080°07'0 0.0
2017-Dec-02 19:25N 26°05' W 080°07'0 0.0
2017-Dec-02 18:55N 26°05' W 080°07'0 0.0
2017-Dec-02 18:28N 26°05' W 080°07'0 0.0
2017-Dec-02 17:58N 26°05' W 080°07'0 0.0
2017-Dec-02 17:28N 26°05' W 080°07'0 0.0
2017-Dec-02 16:58N 26°05' W 080°07'0 0.0
2017-Dec-02 16:28N 26°05' W 080°07'0 0.0
2017-Dec-02 15:58N 26°05' W 080°07'0 0.0
2017-Dec-02 15:28N 26°05' W 080°07'0 0.0
2017-Dec-02 14:58N 26°05' W 080°07'0 0.0
2017-Dec-02 14:16N 26°05' W 080°07'0 0.0
2017-Dec-02 13:53N 26°05' W 080°07'0 0.0
2017-Dec-02 13:26N 26°05' W 080°07'0 0.0
2017-Dec-02 12:56N 26°05' W 080°07'0 0.0
2017-Dec-02 12:26N 26°05' W 080°07'0 0.0
2017-Dec-02 12:00N 26°05' W 080°07'0 1.0
2017-Dec-02 11:30N 26°06' W 080°07'5 9.7
2017-Dec-02 11:00N 26°06' W 080°01'612.5
2017-Dec-02 10:30N 26°07' W 079°55'714.4
2017-Dec-02 10:00N 26°09' W 079°47'714.6
2017-Dec-02 09:30N 26°11' W 079°39'714.6
2017-Dec-02 09:00N 26°13' W 079°31'38012.6
2017-Dec-01 03:00N 23°12' W 073°24'3517.6 040 / 181012.5 5.4 27.022.432.1
2017-Dec-01 01:00N 23°00' W 072°48'2020.5 040 / 181012.5 5.4 27.022.432.1
2017-Dec-01 00:00N 22°48' W 072°30'26919.2 030 / 121012.1 5.4 26.822.032.0
2017-Nov-30 10:00N 20°18' W 068°30'22818.4 130 / 131012.5 5.4 26.822.227.9
2017-Nov-29 21:36N 18°18' W 065°04'216.8
2017-Nov-29 21:29N 18°17' W 065°03'6 0.6
2017-Nov-29 11:07N 18°18' W 064°57'1 8.2
2017-Nov-29 11:00N 18°18' W 064°57'  

Dump ship's entire track history